sensor_id;sensor_type;location;lat;lon;timestamp;temperature;humidity
3067;DHT22;1544;48.834;9.194;2023-12-04T00:00:30;-1.70;37.60
3067;DHT22;1544;48.834;9.194;2023-12-04T00:03:06;-1.70;37.50
3067;DHT22;1544;48.834;9.194;2023-12-04T00:05:43;-1.70;37.50
3067;DHT22;1544;48.834;9.194;2023-12-04T00:08:19;-1.80;37.30
3067;DHT22;1544;48.834;9.194;2023-12-04T00:10:55;-1.80;37.30
3067;DHT22;1544;48.834;9.194;2023-12-04T00:13:32;-1.80;37.30
3067;DHT22;1544;48.834;9.194;2023-12-04T00:16:08;-1.90;37.30
3067;DHT22;1544;48.834;9.194;2023-12-04T00:18:44;-1.90;37.40
3067;DHT22;1544;48.834;9.194;2023-12-04T00:21:20;-1.90;37.50
3067;DHT22;1544;48.834;9.194;2023-12-04T00:23:56;-1.90;37.50
3067;DHT22;1544;48.834;9.194;2023-12-04T00:26:32;-1.90;37.90
3067;DHT22;1544;48.834;9.194;2023-12-04T00:29:08;-1.90;37.60
3067;DHT22;1544;48.834;9.194;2023-12-04T00:31:44;-1.90;37.60
3067;DHT22;1544;48.834;9.194;2023-12-04T00:34:20;-1.90;37.60
3067;DHT22;1544;48.834;9.194;2023-12-04T00:36:56;-1.90;37.60
3067;DHT22;1544;48.834;9.194;2023-12-04T00:39:32;-1.90;37.70
3067;DHT22;1544;48.834;9.194;2023-12-04T00:42:08;-1.90;37.70
3067;DHT22;1544;48.834;9.194;2023-12-04T00:44:44;-1.90;37.70
3067;DHT22;1544;48.834;9.194;2023-12-04T00:47:20;-2.00;37.50
3067;DHT22;1544;48.834;9.194;2023-12-04T00:49:56;-2.00;37.50
3067;DHT22;1544;48.834;9.194;2023-12-04T00:52:32;-2.00;37.40
3067;DHT22;1544;48.834;9.194;2023-12-04T00:55:09;-2.00;37.50
3067;DHT22;1544;48.834;9.194;2023-12-04T00:57:45;-2.00;37.50
3067;DHT22;1544;48.834;9.194;2023-12-04T01:00:21;-2.00;37.60
3067;DHT22;1544;48.834;9.194;2023-12-04T01:02:57;-2.00;37.60
3067;DHT22;1544;48.834;9.194;2023-12-04T01:05:33;-2.00;37.60
3067;DHT22;1544;48.834;9.194;2023-12-04T01:08:09;-2.10;37.60
3067;DHT22;1544;48.834;9.194;2023-12-04T01:10:45;-2.10;37.50
3067;DHT22;1544;48.834;9.194;2023-12-04T01:13:21;-2.10;37.60
3067;DHT22;1544;48.834;9.194;2023-12-04T01:15:57;-2.10;37.60
3067;DHT22;1544;48.834;9.194;2023-12-04T01:18:33;-2.10;37.60
3067;DHT22;1544;48.834;9.194;2023-12-04T01:21:09;-2.10;37.60
3067;DHT22;1544;48.834;9.194;2023-12-04T01:23:45;-2.10;37.60
3067;DHT22;1544;48.834;9.194;2023-12-04T01:26:21;-2.10;37.60
3067;DHT22;1544;48.834;9.194;2023-12-04T01:28:57;-2.10;37.50
3067;DHT22;1544;48.834;9.194;2023-12-04T01:31:33;-2.10;37.50
3067;DHT22;1544;48.834;9.194;2023-12-04T01:34:09;-2.10;37.50
3067;DHT22;1544;48.834;9.194;2023-12-04T01:36:45;-2.00;37.60
3067;DHT22;1544;48.834;9.194;2023-12-04T01:39:21;-2.00;37.60
3067;DHT22;1544;48.834;9.194;2023-12-04T01:41:57;-2.00;37.70
3067;DHT22;1544;48.834;9.194;2023-12-04T01:44:33;-2.00;37.70
3067;DHT22;1544;48.834;9.194;2023-12-04T01:47:10;-2.00;37.70
3067;DHT22;1544;48.834;9.194;2023-12-04T01:49:46;-2.00;37.70
3067;DHT22;1544;48.834;9.194;2023-12-04T01:52:22;-2.00;37.70
3067;DHT22;1544;48.834;9.194;2023-12-04T01:54:59;-2.00;37.60
3067;DHT22;1544;48.834;9.194;2023-12-04T01:57:36;-2.00;37.50
3067;DHT22;1544;48.834;9.194;2023-12-04T02:00:13;-2.00;37.50
3067;DHT22;1544;48.834;9.194;2023-12-04T02:02:50;-2.00;37.50
3067;DHT22;1544;48.834;9.194;2023-12-04T02:05:26;-2.00;37.40
3067;DHT22;1544;48.834;9.194;2023-12-04T02:08:04;-2.10;37.40
3067;DHT22;1544;48.834;9.194;2023-12-04T02:10:40;-2.10;37.40
3067;DHT22;1544;48.834;9.194;2023-12-04T02:13:16;-2.10;37.40
3067;DHT22;1544;48.834;9.194;2023-12-04T02:15:54;-2.10;37.40
3067;DHT22;1544;48.834;9.194;2023-12-04T02:18:30;-2.10;37.40
3067;DHT22;1544;48.834;9.194;2023-12-04T02:21:07;-2.00;37.60
3067;DHT22;1544;48.834;9.194;2023-12-04T02:23:43;-2.10;37.50
3067;DHT22;1544;48.834;9.194;2023-12-04T02:26:22;-2.20;37.40
3067;DHT22;1544;48.834;9.194;2023-12-04T02:29:03;-2.20;37.40
3067;DHT22;1544;48.834;9.194;2023-12-04T02:31:46;-2.20;37.40
3067;DHT22;1544;48.834;9.194;2023-12-04T02:34:23;-2.20;37.50
3067;DHT22;1544;48.834;9.194;2023-12-04T02:37:01;-2.30;37.40
3067;DHT22;1544;48.834;9.194;2023-12-04T02:39:38;-2.30;37.50
3067;DHT22;1544;48.834;9.194;2023-12-04T02:42:15;-2.30;37.50
3067;DHT22;1544;48.834;9.194;2023-12-04T02:44:52;-2.30;37.60
3067;DHT22;1544;48.834;9.194;2023-12-04T02:47:28;-2.30;37.60
3067;DHT22;1544;48.834;9.194;2023-12-04T02:50:05;-2.30;37.70
3067;DHT22;1544;48.834;9.194;2023-12-04T02:52:41;-2.30;37.80
3067;DHT22;1544;48.834;9.194;2023-12-04T02:55:17;-2.30;37.80
3067;DHT22;1544;48.834;9.194;2023-12-04T02:57:53;-2.20;37.80
3067;DHT22;1544;48.834;9.194;2023-12-04T03:00:30;-2.30;37.70
3067;DHT22;1544;48.834;9.194;2023-12-04T03:03:06;-2.30;37.60
3067;DHT22;1544;48.834;9.194;2023-12-04T03:05:42;-2.30;37.50
3067;DHT22;1544;48.834;9.194;2023-12-04T03:08:18;-2.30;37.50
3067;DHT22;1544;48.834;9.194;2023-12-04T03:10:53;-2.30;37.50
3067;DHT22;1544;48.834;9.194;2023-12-04T03:13:29;-2.30;37.50
3067;DHT22;1544;48.834;9.194;2023-12-04T03:16:06;-2.40;37.50
3067;DHT22;1544;48.834;9.194;2023-12-04T03:18:50;-2.40;37.70
3067;DHT22;1544;48.834;9.194;2023-12-04T03:21:26;-2.40;37.70
3067;DHT22;1544;48.834;9.194;2023-12-04T03:24:04;-2.40;37.70
3067;DHT22;1544;48.834;9.194;2023-12-04T03:26:40;-2.30;38.30
3067;DHT22;1544;48.834;9.194;2023-12-04T03:29:16;-2.30;37.90
3067;DHT22;1544;48.834;9.194;2023-12-04T03:31:52;-2.30;37.90
3067;DHT22;1544;48.834;9.194;2023-12-04T03:34:28;-2.30;38.00
3067;DHT22;1544;48.834;9.194;2023-12-04T03:37:04;-2.30;37.90
3067;DHT22;1544;48.834;9.194;2023-12-04T03:39:40;-2.30;37.90
3067;DHT22;1544;48.834;9.194;2023-12-04T03:42:16;-2.30;37.90
3067;DHT22;1544;48.834;9.194;2023-12-04T03:44:52;-2.30;37.80
3067;DHT22;1544;48.834;9.194;2023-12-04T03:47:28;-2.30;37.80
3067;DHT22;1544;48.834;9.194;2023-12-04T03:50:05;-2.20;37.90
3067;DHT22;1544;48.834;9.194;2023-12-04T03:52:41;-2.20;37.90
3067;DHT22;1544;48.834;9.194;2023-12-04T03:55:17;-2.20;37.90
3067;DHT22;1544;48.834;9.194;2023-12-04T03:57:56;-2.20;37.90
3067;DHT22;1544;48.834;9.194;2023-12-04T04:00:32;-2.20;37.80
3067;DHT22;1544;48.834;9.194;2023-12-04T04:03:10;-2.20;37.80
3067;DHT22;1544;48.834;9.194;2023-12-04T04:05:46;-2.20;37.70
3067;DHT22;1544;48.834;9.194;2023-12-04T04:08:22;-2.10;37.80
3067;DHT22;1544;48.834;9.194;2023-12-04T04:10:58;-2.10;37.80
3067;DHT22;1544;48.834;9.194;2023-12-04T04:13:33;-2.10;37.80
3067;DHT22;1544;48.834;9.194;2023-12-04T04:16:15;-1.80;38.00
3067;DHT22;1544;48.834;9.194;2023-12-04T04:18:54;-2.10;37.80
3067;DHT22;1544;48.834;9.194;2023-12-04T04:21:30;-2.00;37.80
3067;DHT22;1544;48.834;9.194;2023-12-04T04:24:06;-2.10;37.70
3067;DHT22;1544;48.834;9.194;2023-12-04T04:26:42;-2.00;37.70
3067;DHT22;1544;48.834;9.194;2023-12-04T04:29:18;-2.00;37.70
3067;DHT22;1544;48.834;9.194;2023-12-04T04:31:54;-2.00;37.60
3067;DHT22;1544;48.834;9.194;2023-12-04T04:34:30;-2.00;37.60
3067;DHT22;1544;48.834;9.194;2023-12-04T04:37:06;-2.00;37.60
3067;DHT22;1544;48.834;9.194;2023-12-04T04:39:42;-2.00;37.50
3067;DHT22;1544;48.834;9.194;2023-12-04T04:42:18;-2.00;37.50
3067;DHT22;1544;48.834;9.194;2023-12-04T04:44:54;-2.00;37.50
3067;DHT22;1544;48.834;9.194;2023-12-04T04:47:30;-2.00;37.40
3067;DHT22;1544;48.834;9.194;2023-12-04T04:50:06;-2.00;37.40
3067;DHT22;1544;48.834;9.194;2023-12-04T04:52:42;-2.00;37.40
3067;DHT22;1544;48.834;9.194;2023-12-04T04:55:18;-2.00;37.40
3067;DHT22;1544;48.834;9.194;2023-12-04T04:58:17;-2.00;37.40
3067;DHT22;1544;48.834;9.194;2023-12-04T05:00:53;-2.00;37.50
3067;DHT22;1544;48.834;9.194;2023-12-04T05:03:29;-1.90;37.70
3067;DHT22;1544;48.834;9.194;2023-12-04T05:06:05;-1.90;37.80
3067;DHT22;1544;48.834;9.194;2023-12-04T05:08:42;-1.90;37.70
3067;DHT22;1544;48.834;9.194;2023-12-04T05:11:18;-1.90;37.70
3067;DHT22;1544;48.834;9.194;2023-12-04T05:13:54;-1.90;37.70
3067;DHT22;1544;48.834;9.194;2023-12-04T05:16:30;-1.90;37.60
3067;DHT22;1544;48.834;9.194;2023-12-04T05:19:06;-1.80;37.70
3067;DHT22;1544;48.834;9.194;2023-12-04T05:21:42;-1.80;37.60
3067;DHT22;1544;48.834;9.194;2023-12-04T05:24:18;-1.80;37.60
3067;DHT22;1544;48.834;9.194;2023-12-04T05:26:54;-1.90;37.30
3067;DHT22;1544;48.834;9.194;2023-12-04T05:29:30;-1.90;37.30
3067;DHT22;1544;48.834;9.194;2023-12-04T05:32:06;-1.90;37.30
3067;DHT22;1544;48.834;9.194;2023-12-04T05:34:42;-1.90;37.30
3067;DHT22;1544;48.834;9.194;2023-12-04T05:37:18;-1.80;37.30
3067;DHT22;1544;48.834;9.194;2023-12-04T05:39:54;-1.80;37.10
3067;DHT22;1544;48.834;9.194;2023-12-04T05:42:30;-1.80;37.00
3067;DHT22;1544;48.834;9.194;2023-12-04T05:45:06;-1.90;36.90
3067;DHT22;1544;48.834;9.194;2023-12-04T05:47:43;-1.90;36.70
3067;DHT22;1544;48.834;9.194;2023-12-04T05:50:19;-1.90;36.40
3067;DHT22;1544;48.834;9.194;2023-12-04T05:52:55;-1.90;36.30
3067;DHT22;1544;48.834;9.194;2023-12-04T05:55:31;-1.90;36.60
3067;DHT22;1544;48.834;9.194;2023-12-04T05:58:07;-1.90;36.30
3067;DHT22;1544;48.834;9.194;2023-12-04T06:00:44;-1.90;36.10
3067;DHT22;1544;48.834;9.194;2023-12-04T06:03:20;-1.90;36.10
3067;DHT22;1544;48.834;9.194;2023-12-04T06:05:56;-1.90;36.00
3067;DHT22;1544;48.834;9.194;2023-12-04T06:08:35;-1.90;36.00
3067;DHT22;1544;48.834;9.194;2023-12-04T06:11:11;-1.90;35.90
3067;DHT22;1544;48.834;9.194;2023-12-04T06:13:48;-1.90;35.90
3067;DHT22;1544;48.834;9.194;2023-12-04T06:16:25;-1.90;35.90
3067;DHT22;1544;48.834;9.194;2023-12-04T06:19:01;-1.90;35.90
3067;DHT22;1544;48.834;9.194;2023-12-04T06:21:37;-1.90;35.90
3067;DHT22;1544;48.834;9.194;2023-12-04T06:24:14;-1.80;36.00
3067;DHT22;1544;48.834;9.194;2023-12-04T06:26:50;-1.80;36.00
3067;DHT22;1544;48.834;9.194;2023-12-04T06:29:27;-1.80;36.00
3067;DHT22;1544;48.834;9.194;2023-12-04T06:32:04;-1.70;36.10
3067;DHT22;1544;48.834;9.194;2023-12-04T06:34:41;-1.70;36.00
3067;DHT22;1544;48.834;9.194;2023-12-04T06:37:17;-1.70;36.00
3067;DHT22;1544;48.834;9.194;2023-12-04T06:39:54;-1.70;36.00
3067;DHT22;1544;48.834;9.194;2023-12-04T06:42:31;-1.70;35.90
3067;DHT22;1544;48.834;9.194;2023-12-04T06:45:08;-1.70;35.80
3067;DHT22;1544;48.834;9.194;2023-12-04T06:47:46;-1.70;35.80
3067;DHT22;1544;48.834;9.194;2023-12-04T06:50:26;-1.70;35.70
3067;DHT22;1544;48.834;9.194;2023-12-04T06:53:02;-1.70;35.70
3067;DHT22;1544;48.834;9.194;2023-12-04T06:55:38;-1.70;35.70
3067;DHT22;1544;48.834;9.194;2023-12-04T06:58:15;-1.70;35.60
3067;DHT22;1544;48.834;9.194;2023-12-04T07:00:51;-1.70;35.60
3067;DHT22;1544;48.834;9.194;2023-12-04T07:03:29;-1.70;35.60
3067;DHT22;1544;48.834;9.194;2023-12-04T07:06:05;-1.70;35.60
3067;DHT22;1544;48.834;9.194;2023-12-04T07:08:41;-1.60;35.70
3067;DHT22;1544;48.834;9.194;2023-12-04T07:11:17;-1.60;35.80
3067;DHT22;1544;48.834;9.194;2023-12-04T07:13:54;-1.60;35.80
3067;DHT22;1544;48.834;9.194;2023-12-04T07:16:30;-1.50;35.90
3067;DHT22;1544;48.834;9.194;2023-12-04T07:19:06;-1.50;35.90
3067;DHT22;1544;48.834;9.194;2023-12-04T07:21:45;-1.50;35.90
3067;DHT22;1544;48.834;9.194;2023-12-04T07:24:27;-1.50;35.80
3067;DHT22;1544;48.834;9.194;2023-12-04T07:27:03;-1.40;35.90
3067;DHT22;1544;48.834;9.194;2023-12-04T07:29:40;-1.40;35.80
3067;DHT22;1544;48.834;9.194;2023-12-04T07:32:16;-1.40;35.70
3067;DHT22;1544;48.834;9.194;2023-12-04T07:34:53;-1.40;35.70
3067;DHT22;1544;48.834;9.194;2023-12-04T07:37:30;-1.30;35.80
3067;DHT22;1544;48.834;9.194;2023-12-04T07:40:07;-1.30;35.70
3067;DHT22;1544;48.834;9.194;2023-12-04T07:42:44;-1.30;35.50
3067;DHT22;1544;48.834;9.194;2023-12-04T07:45:21;-1.20;35.50
3067;DHT22;1544;48.834;9.194;2023-12-04T07:47:57;-1.20;35.40
3067;DHT22;1544;48.834;9.194;2023-12-04T07:50:33;-1.20;35.30
3067;DHT22;1544;48.834;9.194;2023-12-04T07:53:09;-1.20;35.20
3067;DHT22;1544;48.834;9.194;2023-12-04T07:55:47;-1.20;35.20
3067;DHT22;1544;48.834;9.194;2023-12-04T07:58:25;-1.10;35.30
3067;DHT22;1544;48.834;9.194;2023-12-04T08:01:01;-1.00;35.50
3067;DHT22;1544;48.834;9.194;2023-12-04T08:03:37;-1.00;35.50
3067;DHT22;1544;48.834;9.194;2023-12-04T08:06:13;-0.90;35.50
3067;DHT22;1544;48.834;9.194;2023-12-04T08:08:49;-0.80;35.60
3067;DHT22;1544;48.834;9.194;2023-12-04T08:11:25;-0.80;35.50
3067;DHT22;1544;48.834;9.194;2023-12-04T08:14:03;-0.70;35.50
3067;DHT22;1544;48.834;9.194;2023-12-04T08:16:39;-0.60;35.60
3067;DHT22;1544;48.834;9.194;2023-12-04T08:19:16;-0.50;35.60
3067;DHT22;1544;48.834;9.194;2023-12-04T08:21:52;-0.50;35.50
3067;DHT22;1544;48.834;9.194;2023-12-04T08:24:28;-0.90;35.10
3067;DHT22;1544;48.834;9.194;2023-12-04T08:27:05;-0.40;35.30
3067;DHT22;1544;48.834;9.194;2023-12-04T08:29:41;-0.40;35.00
3067;DHT22;1544;48.834;9.194;2023-12-04T08:32:17;-0.30;35.20
3067;DHT22;1544;48.834;9.194;2023-12-04T08:34:53;-0.30;34.70
3067;DHT22;1544;48.834;9.194;2023-12-04T08:37:29;-0.30;34.60
3067;DHT22;1544;48.834;9.194;2023-12-04T08:40:06;-0.20;34.60
3067;DHT22;1544;48.834;9.194;2023-12-04T08:42:44;-0.20;34.40
3067;DHT22;1544;48.834;9.194;2023-12-04T08:45:20;-0.10;34.40
3067;DHT22;1544;48.834;9.194;2023-12-04T08:47:57;-0.10;34.20
3067;DHT22;1544;48.834;9.194;2023-12-04T08:50:33;-0.10;34.10
3067;DHT22;1544;48.834;9.194;2023-12-04T08:53:09;0.00;34.10
3067;DHT22;1544;48.834;9.194;2023-12-04T08:55:45;0.00;34.10
3067;DHT22;1544;48.834;9.194;2023-12-04T08:58:23;0.10;34.20
3067;DHT22;1544;48.834;9.194;2023-12-04T09:00:59;0.20;34.00
3067;DHT22;1544;48.834;9.194;2023-12-04T09:03:35;0.20;33.80
3067;DHT22;1544;48.834;9.194;2023-12-04T09:06:11;0.30;33.70
3067;DHT22;1544;48.834;9.194;2023-12-04T09:08:47;0.40;33.70
3067;DHT22;1544;48.834;9.194;2023-12-04T09:11:42;0.40;33.60
3067;DHT22;1544;48.834;9.194;2023-12-04T09:14:18;0.50;33.70
3067;DHT22;1544;48.834;9.194;2023-12-04T09:16:54;0.60;33.80
3067;DHT22;1544;48.834;9.194;2023-12-04T09:19:31;0.70;33.80
3067;DHT22;1544;48.834;9.194;2023-12-04T09:22:08;0.80;34.00
3067;DHT22;1544;48.834;9.194;2023-12-04T09:24:54;0.70;33.20
3067;DHT22;1544;48.834;9.194;2023-12-04T09:27:30;0.70;33.20
3067;DHT22;1544;48.834;9.194;2023-12-04T09:30:06;0.70;33.30
3067;DHT22;1544;48.834;9.194;2023-12-04T09:32:43;0.80;33.40
3067;DHT22;1544;48.834;9.194;2023-12-04T09:35:19;0.80;33.40
3067;DHT22;1544;48.834;9.194;2023-12-04T09:37:55;0.80;33.40
3067;DHT22;1544;48.834;9.194;2023-12-04T09:40:32;0.90;33.30
3067;DHT22;1544;48.834;9.194;2023-12-04T09:43:08;0.90;33.20
3067;DHT22;1544;48.834;9.194;2023-12-04T09:45:44;0.90;33.20
3067;DHT22;1544;48.834;9.194;2023-12-04T09:48:22;1.00;33.20
3067;DHT22;1544;48.834;9.194;2023-12-04T09:51:01;1.10;33.30
3067;DHT22;1544;48.834;9.194;2023-12-04T09:53:40;1.10;33.10
3067;DHT22;1544;48.834;9.194;2023-12-04T09:56:16;1.10;33.00
3067;DHT22;1544;48.834;9.194;2023-12-04T09:58:58;1.10;33.10
3067;DHT22;1544;48.834;9.194;2023-12-04T10:01:38;1.20;33.20
3067;DHT22;1544;48.834;9.194;2023-12-04T10:04:15;1.20;33.20
3067;DHT22;1544;48.834;9.194;2023-12-04T10:06:51;1.20;33.10
3067;DHT22;1544;48.834;9.194;2023-12-04T10:09:30;1.20;33.10
3067;DHT22;1544;48.834;9.194;2023-12-04T10:12:06;1.20;32.90
3067;DHT22;1544;48.834;9.194;2023-12-04T10:14:43;1.20;32.90
3067;DHT22;1544;48.834;9.194;2023-12-04T10:17:19;1.20;32.90
3067;DHT22;1544;48.834;9.194;2023-12-04T10:20:08;1.30;33.10
3067;DHT22;1544;48.834;9.194;2023-12-04T10:22:57;1.30;33.00
3067;DHT22;1544;48.834;9.194;2023-12-04T10:25:35;1.40;33.10
3067;DHT22;1544;48.834;9.194;2023-12-04T10:28:12;1.40;33.00
3067;DHT22;1544;48.834;9.194;2023-12-04T10:30:53;1.40;32.90
3067;DHT22;1544;48.834;9.194;2023-12-04T10:33:29;1.50;32.90
3067;DHT22;1544;48.834;9.194;2023-12-04T10:36:11;1.50;32.90
3067;DHT22;1544;48.834;9.194;2023-12-04T10:38:58;1.50;32.70
3067;DHT22;1544;48.834;9.194;2023-12-04T10:41:35;1.50;32.70
3067;DHT22;1544;48.834;9.194;2023-12-04T10:44:22;1.60;32.80
3067;DHT22;1544;48.834;9.194;2023-12-04T10:47:00;1.60;32.80
3067;DHT22;1544;48.834;9.194;2023-12-04T10:49:37;1.70;32.90
3067;DHT22;1544;48.834;9.194;2023-12-04T10:52:13;1.80;33.00
3067;DHT22;1544;48.834;9.194;2023-12-04T10:54:49;1.80;32.90
3067;DHT22;1544;48.834;9.194;2023-12-04T10:57:27;1.80;32.90
3067;DHT22;1544;48.834;9.194;2023-12-04T11:00:08;1.90;33.00
3067;DHT22;1544;48.834;9.194;2023-12-04T11:02:47;1.90;33.00
3067;DHT22;1544;48.834;9.194;2023-12-04T11:05:24;1.90;33.20
3067;DHT22;1544;48.834;9.194;2023-12-04T11:08:02;1.90;33.10
3067;DHT22;1544;48.834;9.194;2023-12-04T11:11:04;2.00;33.20
3067;DHT22;1544;48.834;9.194;2023-12-04T11:13:49;2.10;33.20
3067;DHT22;1544;48.834;9.194;2023-12-04T11:16:35;2.20;33.20
3067;DHT22;1544;48.834;9.194;2023-12-04T11:19:28;2.30;33.20
3067;DHT22;1544;48.834;9.194;2023-12-04T11:22:14;2.30;33.00
3067;DHT22;1544;48.834;9.194;2023-12-04T11:24:51;2.30;33.00
3067;DHT22;1544;48.834;9.194;2023-12-04T11:27:27;2.30;32.90
3067;DHT22;1544;48.834;9.194;2023-12-04T11:30:03;2.30;32.90
3067;DHT22;1544;48.834;9.194;2023-12-04T11:32:45;2.30;32.90
3067;DHT22;1544;48.834;9.194;2023-12-04T11:35:26;2.30;33.00
3067;DHT22;1544;48.834;9.194;2023-12-04T11:38:05;2.30;33.10
3067;DHT22;1544;48.834;9.194;2023-12-04T11:40:43;2.30;33.00
3067;DHT22;1544;48.834;9.194;2023-12-04T11:43:28;2.20;33.00
3067;DHT22;1544;48.834;9.194;2023-12-04T11:46:09;2.30;33.30
3067;DHT22;1544;48.834;9.194;2023-12-04T11:48:45;2.30;33.50
3067;DHT22;1544;48.834;9.194;2023-12-04T11:54:24;2.40;33.40
3067;DHT22;1544;48.834;9.194;2023-12-04T11:59:44;1.60;33.10
3067;DHT22;1544;48.834;9.194;2023-12-04T12:02:20;2.40;33.80
3067;DHT22;1544;48.834;9.194;2023-12-04T12:04:56;2.40;33.80
3067;DHT22;1544;48.834;9.194;2023-12-04T12:07:34;2.30;33.80
3067;DHT22;1544;48.834;9.194;2023-12-04T12:10:11;2.30;33.80
3067;DHT22;1544;48.834;9.194;2023-12-04T12:12:49;2.20;33.70
3067;DHT22;1544;48.834;9.194;2023-12-04T12:15:25;2.20;33.80
3067;DHT22;1544;48.834;9.194;2023-12-04T12:18:01;2.20;33.80
3067;DHT22;1544;48.834;9.194;2023-12-04T12:20:38;2.10;33.80
3067;DHT22;1544;48.834;9.194;2023-12-04T12:23:14;2.20;33.90
3067;DHT22;1544;48.834;9.194;2023-12-04T12:25:50;2.20;33.90
3067;DHT22;1544;48.834;9.194;2023-12-04T12:28:26;2.30;33.90
3067;DHT22;1544;48.834;9.194;2023-12-04T12:31:04;2.40;34.10
3067;DHT22;1544;48.834;9.194;2023-12-04T12:33:40;2.50;34.10
3067;DHT22;1544;48.834;9.194;2023-12-04T12:36:16;2.60;34.10
3067;DHT22;1544;48.834;9.194;2023-12-04T12:38:53;2.70;34.10
3067;DHT22;1544;48.834;9.194;2023-12-04T12:41:30;2.80;34.20
3067;DHT22;1544;48.834;9.194;2023-12-04T12:44:06;2.80;34.60
3067;DHT22;1544;48.834;9.194;2023-12-04T12:46:46;2.80;34.30
3067;DHT22;1544;48.834;9.194;2023-12-04T12:49:23;2.90;34.40
3067;DHT22;1544;48.834;9.194;2023-12-04T12:52:11;2.90;34.20
3067;DHT22;1544;48.834;9.194;2023-12-04T12:54:47;2.90;34.10
3067;DHT22;1544;48.834;9.194;2023-12-04T12:57:23;2.90;34.10
3067;DHT22;1544;48.834;9.194;2023-12-04T13:00:01;2.80;34.10
3067;DHT22;1544;48.834;9.194;2023-12-04T13:02:41;2.80;34.10
3067;DHT22;1544;48.834;9.194;2023-12-04T13:05:20;2.80;34.10
3067;DHT22;1544;48.834;9.194;2023-12-04T13:07:56;2.90;34.20
3067;DHT22;1544;48.834;9.194;2023-12-04T13:10:33;2.90;34.10
3067;DHT22;1544;48.834;9.194;2023-12-04T13:13:12;3.00;34.20
3067;DHT22;1544;48.834;9.194;2023-12-04T13:15:48;3.00;34.30
3067;DHT22;1544;48.834;9.194;2023-12-04T13:18:25;3.00;34.30
3067;DHT22;1544;48.834;9.194;2023-12-04T13:21:01;3.00;34.30
3067;DHT22;1544;48.834;9.194;2023-12-04T13:23:38;3.00;34.40
3067;DHT22;1544;48.834;9.194;2023-12-04T13:26:14;2.90;34.50
3067;DHT22;1544;48.834;9.194;2023-12-04T13:28:51;3.00;34.60
3067;DHT22;1544;48.834;9.194;2023-12-04T13:31:27;3.00;34.80
3067;DHT22;1544;48.834;9.194;2023-12-04T13:34:03;3.00;34.80
3067;DHT22;1544;48.834;9.194;2023-12-04T13:36:42;3.00;34.80
3067;DHT22;1544;48.834;9.194;2023-12-04T13:39:18;3.10;34.90
3067;DHT22;1544;48.834;9.194;2023-12-04T13:42:03;3.10;34.90
3067;DHT22;1544;48.834;9.194;2023-12-04T13:44:59;3.10;35.00
3067;DHT22;1544;48.834;9.194;2023-12-04T13:47:35;3.00;34.70
3067;DHT22;1544;48.834;9.194;2023-12-04T13:50:11;2.90;34.60
3067;DHT22;1544;48.834;9.194;2023-12-04T13:52:47;2.90;34.80
3067;DHT22;1544;48.834;9.194;2023-12-04T13:55:31;2.80;34.60
3067;DHT22;1544;48.834;9.194;2023-12-04T13:58:22;2.70;34.40
3067;DHT22;1544;48.834;9.194;2023-12-04T14:01:15;2.70;34.30
3067;DHT22;1544;48.834;9.194;2023-12-04T14:03:58;2.70;34.10
3067;DHT22;1544;48.834;9.194;2023-12-04T14:06:38;2.60;34.10
3067;DHT22;1544;48.834;9.194;2023-12-04T14:09:15;2.50;34.10
3067;DHT22;1544;48.834;9.194;2023-12-04T14:11:51;2.50;34.30
3067;DHT22;1544;48.834;9.194;2023-12-04T14:14:27;2.50;34.70
3067;DHT22;1544;48.834;9.194;2023-12-04T14:17:04;2.40;34.30
3067;DHT22;1544;48.834;9.194;2023-12-04T14:19:41;2.50;34.50
3067;DHT22;1544;48.834;9.194;2023-12-04T14:22:17;2.50;34.40
3067;DHT22;1544;48.834;9.194;2023-12-04T14:24:54;2.40;34.40
3067;DHT22;1544;48.834;9.194;2023-12-04T14:27:30;2.30;34.20
3067;DHT22;1544;48.834;9.194;2023-12-04T14:30:07;2.20;34.10
3067;DHT22;1544;48.834;9.194;2023-12-04T14:32:44;2.10;34.30
3067;DHT22;1544;48.834;9.194;2023-12-04T14:35:23;2.10;34.30
3067;DHT22;1544;48.834;9.194;2023-12-04T14:37:59;2.00;34.40
3067;DHT22;1544;48.834;9.194;2023-12-04T14:40:35;2.00;34.40
3067;DHT22;1544;48.834;9.194;2023-12-04T14:43:11;2.00;34.40
3067;DHT22;1544;48.834;9.194;2023-12-04T14:45:48;2.00;34.30
3067;DHT22;1544;48.834;9.194;2023-12-04T14:48:24;2.00;34.40
3067;DHT22;1544;48.834;9.194;2023-12-04T14:51:00;2.00;34.70
3067;DHT22;1544;48.834;9.194;2023-12-04T14:53:38;2.00;34.70
3067;DHT22;1544;48.834;9.194;2023-12-04T14:56:26;2.00;34.80
3067;DHT22;1544;48.834;9.194;2023-12-04T14:59:11;2.00;34.70
3067;DHT22;1544;48.834;9.194;2023-12-04T15:02:10;2.00;34.90
3067;DHT22;1544;48.834;9.194;2023-12-04T15:05:06;2.00;35.00
3067;DHT22;1544;48.834;9.194;2023-12-04T15:08:01;2.00;34.80
3067;DHT22;1544;48.834;9.194;2023-12-04T15:10:44;2.00;35.10
3067;DHT22;1544;48.834;9.194;2023-12-04T15:13:54;2.00;35.10
3067;DHT22;1544;48.834;9.194;2023-12-04T15:16:51;2.00;35.20
3067;DHT22;1544;48.834;9.194;2023-12-04T15:19:33;2.00;35.40
3067;DHT22;1544;48.834;9.194;2023-12-04T15:22:12;2.00;35.50
3067;DHT22;1544;48.834;9.194;2023-12-04T15:24:48;2.00;35.90
3067;DHT22;1544;48.834;9.194;2023-12-04T15:27:24;2.00;35.70
3067;DHT22;1544;48.834;9.194;2023-12-04T15:30:00;2.10;35.80
3067;DHT22;1544;48.834;9.194;2023-12-04T15:32:36;2.10;35.90
3067;DHT22;1544;48.834;9.194;2023-12-04T15:35:12;2.10;35.90
3067;DHT22;1544;48.834;9.194;2023-12-04T15:37:49;2.10;35.80
3067;DHT22;1544;48.834;9.194;2023-12-04T15:40:25;2.20;36.00
3067;DHT22;1544;48.834;9.194;2023-12-04T15:43:01;2.20;36.00
3067;DHT22;1544;48.834;9.194;2023-12-04T15:45:37;2.20;35.90
3067;DHT22;1544;48.834;9.194;2023-12-04T15:48:13;2.20;35.90
3067;DHT22;1544;48.834;9.194;2023-12-04T15:50:50;2.20;35.90
3067;DHT22;1544;48.834;9.194;2023-12-04T15:53:26;2.20;36.10
3067;DHT22;1544;48.834;9.194;2023-12-04T15:56:03;2.20;36.10
3067;DHT22;1544;48.834;9.194;2023-12-04T15:58:42;2.20;36.10
3067;DHT22;1544;48.834;9.194;2023-12-04T16:01:17;2.20;36.20
3067;DHT22;1544;48.834;9.194;2023-12-04T16:03:54;2.20;36.30
3067;DHT22;1544;48.834;9.194;2023-12-04T16:06:30;2.20;36.40
3067;DHT22;1544;48.834;9.194;2023-12-04T16:09:06;2.20;36.40
3067;DHT22;1544;48.834;9.194;2023-12-04T16:11:43;2.30;36.50
3067;DHT22;1544;48.834;9.194;2023-12-04T16:14:19;2.30;36.50
3067;DHT22;1544;48.834;9.194;2023-12-04T16:16:55;2.20;36.60
3067;DHT22;1544;48.834;9.194;2023-12-04T16:19:33;2.20;36.70
3067;DHT22;1544;48.834;9.194;2023-12-04T16:22:09;2.30;36.80
3067;DHT22;1544;48.834;9.194;2023-12-04T16:24:45;2.20;37.20
3067;DHT22;1544;48.834;9.194;2023-12-04T16:27:21;2.30;36.90
3067;DHT22;1544;48.834;9.194;2023-12-04T16:29:58;2.30;36.90
3067;DHT22;1544;48.834;9.194;2023-12-04T16:32:35;2.30;37.00
3067;DHT22;1544;48.834;9.194;2023-12-04T16:35:11;2.30;37.00
3067;DHT22;1544;48.834;9.194;2023-12-04T16:37:47;2.30;37.00
3067;DHT22;1544;48.834;9.194;2023-12-04T16:40:23;2.40;37.00
3067;DHT22;1544;48.834;9.194;2023-12-04T16:42:59;2.40;37.10
3067;DHT22;1544;48.834;9.194;2023-12-04T16:45:37;2.50;37.10
3067;DHT22;1544;48.834;9.194;2023-12-04T16:48:13;2.50;37.00
3067;DHT22;1544;48.834;9.194;2023-12-04T16:50:49;2.60;37.10
3067;DHT22;1544;48.834;9.194;2023-12-04T16:53:25;2.60;37.10
3067;DHT22;1544;48.834;9.194;2023-12-04T16:56:02;2.70;37.10
3067;DHT22;1544;48.834;9.194;2023-12-04T16:58:42;2.70;37.00
3067;DHT22;1544;48.834;9.194;2023-12-04T17:01:18;2.70;37.00
3067;DHT22;1544;48.834;9.194;2023-12-04T17:03:54;2.80;37.00
3067;DHT22;1544;48.834;9.194;2023-12-04T17:06:30;2.70;36.90
3067;DHT22;1544;48.834;9.194;2023-12-04T17:09:06;2.80;37.00
3067;DHT22;1544;48.834;9.194;2023-12-04T17:11:43;2.80;37.00
3067;DHT22;1544;48.834;9.194;2023-12-04T17:14:19;2.80;36.90
3067;DHT22;1544;48.834;9.194;2023-12-04T17:16:55;2.80;36.90
3067;DHT22;1544;48.834;9.194;2023-12-04T17:19:32;2.80;36.80
3067;DHT22;1544;48.834;9.194;2023-12-04T17:22:08;2.80;36.80